SHT9D EGPH-EGLL
Flight info
| Callsign | SHT9D |
|---|---|
| Flight time | 1h 4m |
| Altitude | 25000 |
| Route | DCT GOSAM DCT FENIK L612 ELBUS DCT LAKEY/N0440F330 DCT NUGRA NUGRA2H |
| Aircraft | A320/M-SDE3FGHIJ1RWXY/S |
Departure
| Time | 2026-05-07 15:46 |
|---|---|
| Airport | Edinburgh Airport (EGPH) |
Arrival
| Time | 2026-05-07 16:50 |
|---|---|
| Airport | London Heathrow Airport (EGLL) |
| Time | Latitude | Longitude | Altitude | Speed | Heading |
|---|---|---|---|---|---|
| 2026-05-07 15:11 | 55.94901 | -3.36491 | 116 ft | 0 kts | 148° |
| 2026-05-07 15:34 | 55.94903 | -3.36493 | 116 ft | 2 kts | 148° |
| 2026-05-07 15:34 | 55.94925 | -3.36517 | 112 ft | 4 kts | 149° |
| 2026-05-07 15:34 | 55.94944 | -3.36537 | 112 ft | 4 kts | 136° |
| 2026-05-07 15:34 | 55.94952 | -3.36574 | 112 ft | 4 kts | 70° |
| 2026-05-07 15:35 | 55.94942 | -3.36608 | 112 ft | 0 kts | 58° |
| 2026-05-07 15:40 | 55.94945 | -3.36599 | 116 ft | 4 kts | 59° |
| 2026-05-07 15:40 | 55.94956 | -3.36568 | 114 ft | 6 kts | 59° |
| 2026-05-07 15:41 | 55.94986 | -3.36479 | 115 ft | 10 kts | 58° |
| 2026-05-07 15:41 | 55.95033 | -3.36390 | 115 ft | 9 kts | 18° |
| 2026-05-07 15:41 | 55.95093 | -3.36389 | 115 ft | 8 kts | 30° |
| 2026-05-07 15:41 | 55.95132 | -3.36290 | 115 ft | 11 kts | 59° |
| 2026-05-07 15:42 | 55.95176 | -3.36158 | 115 ft | 14 kts | 59° |
| 2026-05-07 15:42 | 55.95229 | -3.36001 | 115 ft | 16 kts | 59° |
| 2026-05-07 15:42 | 55.95290 | -3.35822 | 116 ft | 18 kts | 58° |
| 2026-05-07 15:42 | 55.95354 | -3.35633 | 115 ft | 15 kts | 59° |
| 2026-05-07 15:43 | 55.95400 | -3.35497 | 115 ft | 13 kts | 59° |
| 2026-05-07 15:43 | 55.95451 | -3.35411 | 115 ft | 9 kts | 8° |
| 2026-05-07 15:43 | 55.95501 | -3.35443 | 114 ft | 7 kts | 328° |
| 2026-05-07 15:43 | 55.95559 | -3.35507 | 113 ft | 10 kts | 326° |
| 2026-05-07 15:44 | 55.95566 | -3.35592 | 113 ft | 9 kts | 240° |
| 2026-05-07 15:44 | 55.95527 | -3.35689 | 113 ft | 11 kts | 241° |
| 2026-05-07 15:44 | 55.95497 | -3.35785 | 113 ft | 8 kts | 239° |
| 2026-05-07 15:44 | 55.95486 | -3.35817 | 113 ft | 0 kts | 239° |
| 2026-05-07 15:45 | 55.95456 | -3.35907 | 111 ft | 29 kts | 240° |
| 2026-05-07 15:46 | 55.94789 | -3.37829 | 120 ft | 142 kts | 237° |
| 2026-05-07 15:46 | 55.94261 | -3.39475 | 473 ft | 156 kts | 237° |
| 2026-05-07 15:46 | 55.93698 | -3.41143 | 1210 ft | 158 kts | 234° |
| 2026-05-07 15:47 | 55.93095 | -3.42886 | 1677 ft | 175 kts | 234° |
| 2026-05-07 15:47 | 55.92395 | -3.44855 | 1938 ft | 202 kts | 235° |
| 2026-05-07 15:47 | 55.91591 | -3.47118 | 2375 ft | 228 kts | 236° |
| 2026-05-07 15:47 | 55.90798 | -3.49670 | 3181 ft | 240 kts | 242° |
| 2026-05-07 15:48 | 55.90268 | -3.52558 | 4099 ft | 248 kts | 252° |
| 2026-05-07 15:48 | 55.89868 | -3.55544 | 5178 ft | 249 kts | 254° |
| 2026-05-07 15:48 | 55.89520 | -3.58592 | 6148 ft | 253 kts | 256° |
| 2026-05-07 15:48 | 55.89231 | -3.61710 | 7083 ft | 256 kts | 258° |
| 2026-05-07 15:49 | 55.88926 | -3.64839 | 8025 ft | 257 kts | 256° |
| 2026-05-07 15:49 | 55.88567 | -3.67918 | 8972 ft | 257 kts | 254° |
| 2026-05-07 15:49 | 55.88161 | -3.71085 | 9818 ft | 264 kts | 256° |
| 2026-05-07 15:49 | 55.87846 | -3.74408 | 10262 ft | 283 kts | 258° |
| 2026-05-07 15:50 | 55.87557 | -3.77972 | 10508 ft | 306 kts | 259° |
| 2026-05-07 15:50 | 55.87246 | -3.81804 | 10989 ft | 317 kts | 259° |
| 2026-05-07 15:50 | 55.86912 | -3.85709 | 11689 ft | 321 kts | 258° |
| 2026-05-07 15:50 | 55.86553 | -3.89647 | 12429 ft | 325 kts | 258° |
| 2026-05-07 15:51 | 55.86172 | -3.93629 | 13194 ft | 328 kts | 257° |
| 2026-05-07 15:51 | 55.85777 | -3.97635 | 13939 ft | 330 kts | 257° |
| 2026-05-07 15:51 | 55.85503 | -4.00366 | 14384 ft | 333 kts | 257° |
| 2026-05-07 15:51 | 55.85095 | -4.04391 | 14999 ft | 337 kts | 257° |
| 2026-05-07 15:52 | 55.84658 | -4.08574 | 15603 ft | 341 kts | 254° |
| 2026-05-07 15:52 | 55.83820 | -4.12437 | 16195 ft | 341 kts | 237° |
| 2026-05-07 15:52 | 55.82329 | -4.15694 | 16795 ft | 342 kts | 220° |
| 2026-05-07 15:52 | 55.80395 | -4.18196 | 17418 ft | 345 kts | 214° |
| 2026-05-07 15:53 | 55.78403 | -4.20622 | 18063 ft | 349 kts | 214° |
| 2026-05-07 15:53 | 55.76390 | -4.23086 | 18653 ft | 353 kts | 212° |
| 2026-05-07 15:53 | 55.74198 | -4.25041 | 19234 ft | 356 kts | 200° |
| 2026-05-07 15:53 | 55.71776 | -4.25994 | 19843 ft | 360 kts | 186° |
| 2026-05-07 15:54 | 55.69258 | -4.25825 | 20448 ft | 366 kts | 172° |
| 2026-05-07 15:54 | 55.66802 | -4.24502 | 21037 ft | 374 kts | 159° |
| 2026-05-07 15:54 | 55.64522 | -4.22446 | 22210 ft | 358 kts | 155° |
| 2026-05-07 15:54 | 55.62391 | -4.20374 | 23460 ft | 345 kts | 155° |
| 2026-05-07 15:55 | 55.60273 | -4.18272 | 23746 ft | 355 kts | 154° |
| 2026-05-07 15:55 | 55.58075 | -4.16086 | 23873 ft | 369 kts | 154° |
| 2026-05-07 15:55 | 55.55807 | -4.13835 | 24165 ft | 377 kts | 154° |
| 2026-05-07 15:55 | 55.53511 | -4.11561 | 24596 ft | 380 kts | 154° |
| 2026-05-07 15:56 | 55.51192 | -4.09275 | 24894 ft | 382 kts | 154° |
| 2026-05-07 15:56 | 55.48864 | -4.07003 | 24952 ft | 382 kts | 155° |
| 2026-05-07 15:56 | 55.46517 | -4.04811 | 24966 ft | 382 kts | 156° |
| 2026-05-07 15:56 | 55.44152 | -4.02681 | 24962 ft | 381 kts | 156° |
| 2026-05-07 15:57 | 55.41785 | -4.00587 | 24973 ft | 381 kts | 156° |
| 2026-05-07 15:57 | 55.39439 | -3.98519 | 24969 ft | 381 kts | 156° |
| 2026-05-07 15:57 | 55.37069 | -3.96427 | 24975 ft | 381 kts | 156° |
| 2026-05-07 15:57 | 55.34699 | -3.94323 | 24979 ft | 381 kts | 156° |
| 2026-05-07 15:58 | 55.32333 | -3.92215 | 24980 ft | 381 kts | 156° |
| 2026-05-07 15:58 | 55.29970 | -3.90109 | 24982 ft | 381 kts | 156° |
| 2026-05-07 15:58 | 55.27603 | -3.87993 | 24981 ft | 382 kts | 156° |
| 2026-05-07 15:58 | 55.25236 | -3.85879 | 24983 ft | 382 kts | 156° |
| 2026-05-07 15:59 | 55.22871 | -3.83774 | 24984 ft | 382 kts | 156° |
| 2026-05-07 15:59 | 55.20505 | -3.81665 | 24981 ft | 382 kts | 156° |
| 2026-05-07 15:59 | 55.18169 | -3.79580 | 24985 ft | 382 kts | 156° |
| 2026-05-07 15:59 | 55.15802 | -3.77472 | 24984 ft | 382 kts | 156° |
| 2026-05-07 16:00 | 55.13434 | -3.75373 | 24988 ft | 382 kts | 156° |
| 2026-05-07 16:00 | 55.11064 | -3.73282 | 24992 ft | 382 kts | 156° |
| 2026-05-07 16:00 | 55.08694 | -3.71193 | 24991 ft | 382 kts | 156° |
| 2026-05-07 16:00 | 55.06319 | -3.69103 | 24991 ft | 382 kts | 156° |
| 2026-05-07 16:01 | 55.03945 | -3.67020 | 24989 ft | 382 kts | 156° |
| 2026-05-07 16:01 | 55.01569 | -3.64937 | 24990 ft | 382 kts | 156° |
| 2026-05-07 16:01 | 54.99195 | -3.62855 | 24990 ft | 382 kts | 156° |
| 2026-05-07 16:01 | 54.96822 | -3.60770 | 24989 ft | 382 kts | 156° |
| 2026-05-07 16:02 | 54.94446 | -3.58682 | 24993 ft | 382 kts | 156° |
| 2026-05-07 16:02 | 54.92070 | -3.56598 | 24990 ft | 383 kts | 156° |
| 2026-05-07 16:02 | 54.89694 | -3.54520 | 24995 ft | 383 kts | 156° |
| 2026-05-07 16:02 | 54.87313 | -3.52447 | 24996 ft | 383 kts | 156° |
| 2026-05-07 16:03 | 54.84929 | -3.50372 | 24993 ft | 383 kts | 156° |
| 2026-05-07 16:03 | 54.82547 | -3.48300 | 24995 ft | 383 kts | 156° |
| 2026-05-07 16:03 | 54.80164 | -3.46231 | 24994 ft | 383 kts | 156° |
| 2026-05-07 16:03 | 54.77780 | -3.44162 | 24996 ft | 383 kts | 156° |
| 2026-05-07 16:04 | 54.75393 | -3.42093 | 24992 ft | 384 kts | 156° |
| 2026-05-07 16:04 | 54.73006 | -3.40031 | 24995 ft | 383 kts | 156° |
| 2026-05-07 16:04 | 54.70620 | -3.37972 | 24997 ft | 383 kts | 156° |
| 2026-05-07 16:04 | 54.68232 | -3.35911 | 24996 ft | 383 kts | 156° |
| 2026-05-07 16:05 | 54.65845 | -3.33850 | 24996 ft | 384 kts | 156° |
| 2026-05-07 16:05 | 54.63458 | -3.31790 | 24996 ft | 384 kts | 156° |
| 2026-05-07 16:05 | 54.61066 | -3.29727 | 24996 ft | 384 kts | 156° |
| 2026-05-07 16:05 | 54.58691 | -3.27683 | 25000 ft | 384 kts | 156° |
| 2026-05-07 16:06 | 54.56297 | -3.25633 | 25001 ft | 385 kts | 156° |
| 2026-05-07 16:06 | 54.53896 | -3.23585 | 25002 ft | 385 kts | 156° |
| 2026-05-07 16:06 | 54.51497 | -3.21535 | 24998 ft | 385 kts | 155° |
| 2026-05-07 16:06 | 54.49102 | -3.19491 | 25001 ft | 385 kts | 156° |
| 2026-05-07 16:07 | 54.46695 | -3.17442 | 25003 ft | 385 kts | 156° |
| 2026-05-07 16:07 | 54.44295 | -3.15397 | 25004 ft | 385 kts | 155° |
| 2026-05-07 16:07 | 54.41892 | -3.13346 | 25009 ft | 386 kts | 155° |
| 2026-05-07 16:07 | 54.39518 | -3.11324 | 25009 ft | 386 kts | 155° |
| 2026-05-07 16:08 | 54.37115 | -3.09280 | 25009 ft | 386 kts | 155° |
| 2026-05-07 16:08 | 54.34703 | -3.07235 | 25012 ft | 387 kts | 155° |
| 2026-05-07 16:08 | 54.32289 | -3.05191 | 25011 ft | 387 kts | 155° |
| 2026-05-07 16:08 | 54.29874 | -3.03153 | 25012 ft | 387 kts | 155° |
| 2026-05-07 16:09 | 54.27457 | -3.01121 | 25010 ft | 388 kts | 156° |
| 2026-05-07 16:09 | 54.25034 | -2.99084 | 25013 ft | 388 kts | 156° |
| 2026-05-07 16:09 | 54.22546 | -2.97332 | 25014 ft | 386 kts | 163° |
| 2026-05-07 16:09 | 54.19994 | -2.95872 | 25014 ft | 387 kts | 163° |
| 2026-05-07 16:10 | 54.17444 | -2.94410 | 25015 ft | 387 kts | 163° |
| 2026-05-07 16:10 | 54.14894 | -2.92946 | 25017 ft | 387 kts | 163° |
| 2026-05-07 16:10 | 54.12339 | -2.91479 | 25020 ft | 387 kts | 163° |
| 2026-05-07 16:10 | 54.09791 | -2.90015 | 25013 ft | 387 kts | 163° |
| 2026-05-07 16:11 | 54.07232 | -2.88544 | 25017 ft | 388 kts | 163° |
| 2026-05-07 16:11 | 54.04676 | -2.87075 | 25013 ft | 388 kts | 163° |
| 2026-05-07 16:11 | 54.02116 | -2.85608 | 25016 ft | 388 kts | 163° |
| 2026-05-07 16:11 | 53.99562 | -2.84149 | 25012 ft | 388 kts | 163° |
| 2026-05-07 16:12 | 53.96995 | -2.82683 | 25013 ft | 389 kts | 163° |
| 2026-05-07 16:12 | 53.94431 | -2.81220 | 25009 ft | 389 kts | 163° |
| 2026-05-07 16:12 | 53.91867 | -2.79764 | 25007 ft | 389 kts | 163° |
| 2026-05-07 16:12 | 53.89303 | -2.78312 | 25006 ft | 389 kts | 163° |
| 2026-05-07 16:13 | 53.86730 | -2.76858 | 25007 ft | 389 kts | 163° |
| 2026-05-07 16:13 | 53.84163 | -2.75407 | 25003 ft | 389 kts | 163° |
| 2026-05-07 16:13 | 53.81593 | -2.73953 | 25004 ft | 389 kts | 163° |
| 2026-05-07 16:13 | 53.79021 | -2.72505 | 25003 ft | 390 kts | 163° |
| 2026-05-07 16:14 | 53.76448 | -2.71058 | 25002 ft | 390 kts | 163° |
| 2026-05-07 16:14 | 53.73877 | -2.69610 | 25005 ft | 390 kts | 163° |
| 2026-05-07 16:14 | 53.71301 | -2.68160 | 25006 ft | 390 kts | 163° |
| 2026-05-07 16:14 | 53.68721 | -2.66710 | 25006 ft | 390 kts | 163° |
| 2026-05-07 16:15 | 53.66143 | -2.65266 | 25009 ft | 391 kts | 163° |
| 2026-05-07 16:15 | 53.63561 | -2.63824 | 25010 ft | 391 kts | 163° |
| 2026-05-07 16:15 | 53.61015 | -2.62401 | 25014 ft | 391 kts | 163° |
| 2026-05-07 16:15 | 53.58450 | -2.60969 | 25015 ft | 391 kts | 163° |
| 2026-05-07 16:16 | 53.55870 | -2.59527 | 25018 ft | 392 kts | 163° |
| 2026-05-07 16:16 | 53.53282 | -2.58084 | 25030 ft | 392 kts | 163° |
| 2026-05-07 16:16 | 53.50734 | -2.56667 | 25028 ft | 392 kts | 163° |
| 2026-05-07 16:16 | 53.48133 | -2.55219 | 25027 ft | 392 kts | 163° |
| 2026-05-07 16:17 | 53.45545 | -2.53775 | 25028 ft | 392 kts | 163° |
| 2026-05-07 16:17 | 53.42958 | -2.52331 | 25028 ft | 392 kts | 163° |
| 2026-05-07 16:17 | 53.40370 | -2.50891 | 25025 ft | 392 kts | 163° |
| 2026-05-07 16:17 | 53.37783 | -2.49455 | 25033 ft | 392 kts | 163° |
| 2026-05-07 16:18 | 53.35189 | -2.48022 | 25026 ft | 392 kts | 163° |
| 2026-05-07 16:18 | 53.32602 | -2.46599 | 25028 ft | 393 kts | 163° |
| 2026-05-07 16:18 | 53.30009 | -2.45178 | 25032 ft | 393 kts | 163° |
| 2026-05-07 16:18 | 53.27411 | -2.43758 | 25032 ft | 393 kts | 163° |
| 2026-05-07 16:19 | 53.24809 | -2.42334 | 25030 ft | 393 kts | 163° |
| 2026-05-07 16:19 | 53.22208 | -2.40908 | 25028 ft | 394 kts | 163° |
| 2026-05-07 16:19 | 53.19610 | -2.39477 | 25029 ft | 394 kts | 163° |
| 2026-05-07 16:19 | 53.17006 | -2.38043 | 25032 ft | 394 kts | 163° |
| 2026-05-07 16:20 | 53.14404 | -2.36613 | 25031 ft | 394 kts | 163° |
| 2026-05-07 16:20 | 53.11795 | -2.35184 | 25034 ft | 394 kts | 163° |
| 2026-05-07 16:20 | 53.09188 | -2.33759 | 25032 ft | 395 kts | 163° |
| 2026-05-07 16:20 | 53.06580 | -2.32338 | 25034 ft | 395 kts | 163° |
| 2026-05-07 16:21 | 53.03979 | -2.30863 | 25032 ft | 396 kts | 159° |
| 2026-05-07 16:21 | 53.01504 | -2.28845 | 25034 ft | 397 kts | 150° |
| 2026-05-07 16:21 | 52.99167 | -2.26388 | 25034 ft | 398 kts | 149° |
| 2026-05-07 16:21 | 52.96833 | -2.23920 | 25036 ft | 398 kts | 149° |
| 2026-05-07 16:22 | 52.94491 | -2.21459 | 25033 ft | 398 kts | 149° |
| 2026-05-07 16:22 | 52.92149 | -2.19009 | 25034 ft | 398 kts | 149° |
| 2026-05-07 16:22 | 52.89805 | -2.16564 | 25038 ft | 398 kts | 149° |
| 2026-05-07 16:22 | 52.87457 | -2.14119 | 25041 ft | 399 kts | 149° |
| 2026-05-07 16:23 | 52.85108 | -2.11672 | 25039 ft | 399 kts | 149° |
| 2026-05-07 16:23 | 52.82759 | -2.09224 | 25040 ft | 399 kts | 149° |
| 2026-05-07 16:23 | 52.80412 | -2.06782 | 25038 ft | 399 kts | 149° |
| 2026-05-07 16:23 | 52.78059 | -2.04334 | 25038 ft | 399 kts | 149° |
| 2026-05-07 16:24 | 52.75707 | -2.01888 | 25036 ft | 400 kts | 149° |
| 2026-05-07 16:24 | 52.73354 | -1.99442 | 25037 ft | 400 kts | 149° |
| 2026-05-07 16:24 | 52.70997 | -1.96993 | 24775 ft | 399 kts | 149° |
| 2026-05-07 16:24 | 52.68658 | -1.94570 | 24682 ft | 398 kts | 149° |
| 2026-05-07 16:25 | 52.66312 | -1.92148 | 24592 ft | 398 kts | 149° |
| 2026-05-07 16:25 | 52.63998 | -1.89765 | 24505 ft | 398 kts | 149° |
| 2026-05-07 16:25 | 52.61644 | -1.87346 | 24423 ft | 398 kts | 149° |
| 2026-05-07 16:25 | 52.59299 | -1.84936 | 24337 ft | 398 kts | 149° |
| 2026-05-07 16:26 | 52.56951 | -1.82527 | 24247 ft | 398 kts | 150° |
| 2026-05-07 16:26 | 52.54604 | -1.80120 | 24166 ft | 397 kts | 150° |
| 2026-05-07 16:26 | 52.52262 | -1.77716 | 24084 ft | 397 kts | 150° |
| 2026-05-07 16:26 | 52.50679 | -1.76096 | 24024 ft | 397 kts | 150° |
| 2026-05-07 16:27 | 52.47573 | -1.72926 | 23917 ft | 397 kts | 150° |
| 2026-05-07 16:27 | 52.45233 | -1.70540 | 23833 ft | 396 kts | 150° |
| 2026-05-07 16:27 | 52.42890 | -1.68151 | 23748 ft | 396 kts | 150° |
| 2026-05-07 16:27 | 52.40557 | -1.65770 | 23666 ft | 395 kts | 150° |
| 2026-05-07 16:28 | 52.38222 | -1.63391 | 23459 ft | 396 kts | 150° |
| 2026-05-07 16:28 | 52.35889 | -1.61018 | 22985 ft | 393 kts | 150° |
| 2026-05-07 16:28 | 52.33575 | -1.58671 | 22517 ft | 391 kts | 150° |
| 2026-05-07 16:28 | 52.31279 | -1.56346 | 22090 ft | 388 kts | 150° |
| 2026-05-07 16:29 | 52.28992 | -1.54030 | 21628 ft | 385 kts | 150° |
| 2026-05-07 16:29 | 52.26723 | -1.51733 | 21169 ft | 383 kts | 150° |
| 2026-05-07 16:29 | 52.24466 | -1.49453 | 20660 ft | 380 kts | 150° |
| 2026-05-07 16:29 | 52.22228 | -1.47179 | 20191 ft | 378 kts | 148° |
| 2026-05-07 16:30 | 52.20164 | -1.44532 | 19774 ft | 376 kts | 141° |
| 2026-05-07 16:30 | 52.18189 | -1.41758 | 19406 ft | 374 kts | 141° |
| 2026-05-07 16:30 | 52.16225 | -1.39010 | 19036 ft | 372 kts | 141° |
| 2026-05-07 16:30 | 52.14265 | -1.36280 | 18652 ft | 369 kts | 141° |
| 2026-05-07 16:31 | 52.12317 | -1.33574 | 18266 ft | 367 kts | 141° |
| 2026-05-07 16:31 | 52.10378 | -1.30882 | 17867 ft | 365 kts | 141° |
| 2026-05-07 16:31 | 52.08454 | -1.28205 | 17478 ft | 363 kts | 141° |
| 2026-05-07 16:31 | 52.06536 | -1.25537 | 17123 ft | 361 kts | 141° |
| 2026-05-07 16:32 | 52.04644 | -1.22910 | 16754 ft | 358 kts | 141° |
| 2026-05-07 16:32 | 52.02751 | -1.20289 | 16367 ft | 356 kts | 141° |
| 2026-05-07 16:32 | 52.00871 | -1.17688 | 15991 ft | 354 kts | 141° |
| 2026-05-07 16:32 | 51.99005 | -1.15115 | 15633 ft | 352 kts | 141° |
| 2026-05-07 16:33 | 51.97148 | -1.12551 | 15274 ft | 350 kts | 141° |
| 2026-05-07 16:33 | 51.95305 | -1.10011 | 15032 ft | 344 kts | 141° |
| 2026-05-07 16:33 | 51.93544 | -1.07582 | 14942 ft | 330 kts | 141° |
| 2026-05-07 16:33 | 51.91805 | -1.05184 | 14817 ft | 319 kts | 141° |
| 2026-05-07 16:34 | 51.90158 | -1.02920 | 14625 ft | 311 kts | 141° |
| 2026-05-07 16:34 | 51.88503 | -1.00645 | 14412 ft | 304 kts | 141° |
| 2026-05-07 16:34 | 51.86940 | -0.98494 | 14282 ft | 285 kts | 141° |
| 2026-05-07 16:34 | 51.85536 | -0.96342 | 14091 ft | 276 kts | 130° |
| 2026-05-07 16:35 | 51.84524 | -0.93734 | 13866 ft | 274 kts | 117° |
| 2026-05-07 16:35 | 51.83679 | -0.90961 | 13176 ft | 286 kts | 117° |
| 2026-05-07 16:35 | 51.82787 | -0.88044 | 12387 ft | 292 kts | 117° |
| 2026-05-07 16:35 | 51.81906 | -0.85158 | 12240 ft | 282 kts | 117° |
| 2026-05-07 16:36 | 51.81050 | -0.82353 | 12106 ft | 274 kts | 117° |
| 2026-05-07 16:36 | 51.80216 | -0.79623 | 11932 ft | 268 kts | 117° |
| 2026-05-07 16:36 | 51.79432 | -0.77067 | 11702 ft | 265 kts | 117° |
| 2026-05-07 16:36 | 51.78604 | -0.74371 | 11431 ft | 264 kts | 117° |
| 2026-05-07 16:37 | 51.77790 | -0.71722 | 11103 ft | 265 kts | 117° |
| 2026-05-07 16:37 | 51.76964 | -0.69043 | 10637 ft | 265 kts | 117° |
| 2026-05-07 16:37 | 51.76144 | -0.66398 | 10198 ft | 262 kts | 117° |
| 2026-05-07 16:37 | 51.75337 | -0.63785 | 9748 ft | 259 kts | 117° |
| 2026-05-07 16:38 | 51.74539 | -0.61202 | 9266 ft | 256 kts | 117° |
| 2026-05-07 16:38 | 51.73743 | -0.58638 | 8786 ft | 254 kts | 119° |
| 2026-05-07 16:38 | 51.72616 | -0.56521 | 8322 ft | 249 kts | 148° |
| 2026-05-07 16:38 | 51.70994 | -0.55608 | 7877 ft | 250 kts | 175° |
| 2026-05-07 16:39 | 51.69260 | -0.55491 | 7397 ft | 252 kts | 180° |
| 2026-05-07 16:39 | 51.67522 | -0.55495 | 7075 ft | 245 kts | 181° |
| 2026-05-07 16:39 | 51.65826 | -0.55517 | 7049 ft | 243 kts | 182° |
| 2026-05-07 16:39 | 51.64206 | -0.56149 | 7050 ft | 241 kts | 211° |
| 2026-05-07 16:40 | 51.62987 | -0.57966 | 7063 ft | 241 kts | 233° |
| 2026-05-07 16:40 | 51.62325 | -0.59401 | 7062 ft | 241 kts | 235° |
| 2026-05-07 16:40 | 51.61361 | -0.61607 | 7056 ft | 241 kts | 236° |
| 2026-05-07 16:40 | 51.60405 | -0.63817 | 7055 ft | 241 kts | 236° |
| 2026-05-07 16:41 | 51.59452 | -0.66016 | 6896 ft | 239 kts | 236° |
| 2026-05-07 16:41 | 51.58498 | -0.68207 | 6589 ft | 239 kts | 236° |
| 2026-05-07 16:41 | 51.57547 | -0.70394 | 6294 ft | 238 kts | 236° |
| 2026-05-07 16:41 | 51.56614 | -0.72586 | 6001 ft | 237 kts | 242° |
| 2026-05-07 16:42 | 51.56024 | -0.75019 | 5824 ft | 229 kts | 255° |
| 2026-05-07 16:42 | 51.55602 | -0.77400 | 5668 ft | 215 kts | 256° |
| 2026-05-07 16:42 | 51.55215 | -0.79668 | 5537 ft | 206 kts | 256° |
| 2026-05-07 16:42 | 51.54847 | -0.81815 | 5440 ft | 194 kts | 256° |
| 2026-05-07 16:43 | 51.54491 | -0.83891 | 5163 ft | 191 kts | 256° |
| 2026-05-07 16:43 | 51.54137 | -0.85942 | 4861 ft | 190 kts | 256° |
| 2026-05-07 16:43 | 51.53784 | -0.87991 | 4545 ft | 190 kts | 255° |
| 2026-05-07 16:43 | 51.53106 | -0.89783 | 4242 ft | 192 kts | 219° |
| 2026-05-07 16:44 | 51.51877 | -0.90546 | 3927 ft | 192 kts | 187° |
| 2026-05-07 16:44 | 51.50565 | -0.90347 | 3597 ft | 192 kts | 153° |
| 2026-05-07 16:44 | 51.49581 | -0.88967 | 3292 ft | 189 kts | 126° |
| 2026-05-07 16:44 | 51.48828 | -0.87252 | 3023 ft | 188 kts | 121° |
| 2026-05-07 16:45 | 51.48115 | -0.85521 | 2981 ft | 189 kts | 121° |
| 2026-05-07 16:45 | 51.47419 | -0.83731 | 3004 ft | 189 kts | 112° |
| 2026-05-07 16:45 | 51.47369 | -0.81706 | 3007 ft | 183 kts | 72° |
| 2026-05-07 16:45 | 51.47604 | -0.79729 | 3002 ft | 185 kts | 87° |
| 2026-05-07 16:46 | 51.47607 | -0.77662 | 3002 ft | 185 kts | 88° |
| 2026-05-07 16:46 | 51.47611 | -0.75624 | 3005 ft | 185 kts | 87° |
| 2026-05-07 16:46 | 51.47620 | -0.73555 | 3004 ft | 185 kts | 86° |
| 2026-05-07 16:46 | 51.47631 | -0.71570 | 2942 ft | 173 kts | 87° |
| 2026-05-07 16:47 | 51.47642 | -0.69682 | 2756 ft | 167 kts | 86° |
| 2026-05-07 16:47 | 51.47653 | -0.67836 | 2555 ft | 164 kts | 86° |
| 2026-05-07 16:47 | 51.47663 | -0.65988 | 2344 ft | 164 kts | 86° |
| 2026-05-07 16:47 | 51.47673 | -0.64166 | 2121 ft | 164 kts | 86° |
| 2026-05-07 16:48 | 51.47683 | -0.62368 | 1906 ft | 163 kts | 87° |
| 2026-05-07 16:48 | 51.47693 | -0.60533 | 1674 ft | 163 kts | 86° |
| 2026-05-07 16:48 | 51.47702 | -0.58720 | 1454 ft | 162 kts | 86° |
| 2026-05-07 16:48 | 51.47711 | -0.56915 | 1231 ft | 161 kts | 85° |
| 2026-05-07 16:49 | 51.47718 | -0.55181 | 983 ft | 151 kts | 87° |
| 2026-05-07 16:49 | 51.47726 | -0.53543 | 765 ft | 139 kts | 90° |
| 2026-05-07 16:49 | 51.47733 | -0.52030 | 566 ft | 136 kts | 90° |
| 2026-05-07 16:49 | 51.47740 | -0.50533 | 384 ft | 133 kts | 92° |
| 2026-05-07 16:50 | 51.47746 | -0.49034 | 205 ft | 134 kts | 91° |
| 2026-05-07 16:50 | 51.47752 | -0.47561 | 88 ft | 124 kts | 90° |
| 2026-05-07 16:50 | 51.47756 | -0.46529 | 91 ft | 51 kts | 89° |
| 2026-05-07 16:50 | 51.47743 | -0.46211 | 87 ft | 18 kts | 118° |
| 2026-05-07 16:51 | 51.47672 | -0.46112 | 86 ft | 9 kts | 146° |
| 2026-05-07 16:51 | 51.47647 | -0.46086 | 88 ft | 0 kts | 146° |
| 2026-05-07 16:51 | 51.47624 | -0.46076 | 87 ft | 6 kts | 180° |
| 2026-05-07 16:51 | 51.47593 | -0.46126 | 88 ft | 8 kts | 259° |
| 2026-05-07 16:52 | 51.47593 | -0.46229 | 87 ft | 12 kts | 269° |
| 2026-05-07 16:52 | 51.47592 | -0.46374 | 87 ft | 14 kts | 270° |
| 2026-05-07 16:52 | 51.47593 | -0.46547 | 87 ft | 17 kts | 270° |
| 2026-05-07 16:52 | 51.47591 | -0.46736 | 87 ft | 18 kts | 269° |
| 2026-05-07 16:53 | 51.47582 | -0.46948 | 90 ft | 20 kts | 270° |
| 2026-05-07 16:53 | 51.47581 | -0.47186 | 89 ft | 22 kts | 270° |
| 2026-05-07 16:53 | 51.47580 | -0.47435 | 90 ft | 23 kts | 270° |
| 2026-05-07 16:53 | 51.47579 | -0.47700 | 88 ft | 25 kts | 270° |
| 2026-05-07 16:54 | 51.47578 | -0.47991 | 89 ft | 27 kts | 270° |
| 2026-05-07 16:54 | 51.47577 | -0.48199 | 87 ft | 15 kts | 270° |
| 2026-05-07 16:54 | 51.47577 | -0.48380 | 87 ft | 17 kts | 269° |
| 2026-05-07 16:54 | 51.47576 | -0.48581 | 87 ft | 19 kts | 269° |
| 2026-05-07 16:55 | 51.47575 | -0.48784 | 87 ft | 16 kts | 270° |
| 2026-05-07 16:55 | 51.47573 | -0.48897 | 87 ft | 9 kts | 261° |
| 2026-05-07 16:55 | 51.47531 | -0.48955 | 89 ft | 2 kts | 185° |
| 2026-05-07 16:55 | 51.47530 | -0.48955 | 89 ft | 0 kts | 185° |
| 2026-05-07 16:56 | 51.47518 | -0.48951 | 88 ft | 6 kts | 163° |
| 2026-05-07 16:56 | 51.47491 | -0.48890 | 87 ft | 8 kts | 106° |
| 2026-05-07 16:56 | 51.47450 | -0.48831 | 87 ft | 6 kts | 183° |
| 2026-05-07 16:57 | 51.47426 | -0.48832 | 87 ft | 4 kts | 180° |
| 2026-05-07 16:57 | 51.47411 | -0.48832 | 87 ft | 2 kts | 180° |
| 2026-05-07 16:57 | 51.47402 | -0.48832 | 87 ft | 0 kts | 179° |